sensor_id;sensor_type;location;lat;lon;timestamp;P1;durP1;ratioP1;P2;durP2;ratioP2
73650;SDS011;61944;52.538;6.108;2023-04-24T00:02:13;1.92;;;1.70;;
73650;SDS011;61944;52.538;6.108;2023-04-24T00:04:39;2.65;;;2.13;;
73650;SDS011;61944;52.538;6.108;2023-04-24T00:07:09;3.45;;;1.80;;
73650;SDS011;61944;52.538;6.108;2023-04-24T00:09:35;1.88;;;1.70;;
73650;SDS011;61944;52.538;6.108;2023-04-24T00:12:01;3.00;;;1.88;;
73650;SDS011;61944;52.538;6.108;2023-04-24T00:14:29;1.80;;;1.70;;
73650;SDS011;61944;52.538;6.108;2023-04-24T00:16:55;2.13;;;1.70;;
73650;SDS011;61944;52.538;6.108;2023-04-24T00:19:20;2.33;;;2.13;;
73650;SDS011;61944;52.538;6.108;2023-04-24T00:21:46;2.38;;;1.90;;
73650;SDS011;61944;52.538;6.108;2023-04-24T00:24:14;2.40;;;2.15;;
73650;SDS011;61944;52.538;6.108;2023-04-24T00:26:40;2.28;;;1.98;;
73650;SDS011;61944;52.538;6.108;2023-04-24T00:29:06;4.15;;;2.90;;
73650;SDS011;61944;52.538;6.108;2023-04-24T00:31:31;2.40;;;2.10;;
73650;SDS011;61944;52.538;6.108;2023-04-24T00:33:59;2.13;;;1.88;;
73650;SDS011;61944;52.538;6.108;2023-04-24T00:36:25;2.50;;;2.17;;
73650;SDS011;61944;52.538;6.108;2023-04-24T00:38:52;2.13;;;1.80;;
73650;SDS011;61944;52.538;6.108;2023-04-24T00:41:17;1.70;;;1.60;;
73650;SDS011;61944;52.538;6.108;2023-04-24T00:43:43;2.15;;;1.90;;
73650;SDS011;61944;52.538;6.108;2023-04-24T00:46:09;2.15;;;1.70;;
73650;SDS011;61944;52.538;6.108;2023-04-24T00:48:36;1.90;;;1.80;;
73650;SDS011;61944;52.538;6.108;2023-04-24T00:51:03;2.00;;;1.90;;
73650;SDS011;61944;52.538;6.108;2023-04-24T00:53:29;1.90;;;1.80;;
73650;SDS011;61944;52.538;6.108;2023-04-24T00:55:54;2.42;;;2.00;;
73650;SDS011;61944;52.538;6.108;2023-04-24T00:58:20;2.03;;;1.90;;
73650;SDS011;61944;52.538;6.108;2023-04-24T01:00:46;2.40;;;2.20;;
73650;SDS011;61944;52.538;6.108;2023-04-24T01:03:13;2.00;;;1.90;;
73650;SDS011;61944;52.538;6.108;2023-04-24T01:05:39;2.25;;;2.10;;
73650;SDS011;61944;52.538;6.108;2023-04-24T01:08:05;2.28;;;2.03;;
73650;SDS011;61944;52.538;6.108;2023-04-24T01:10:31;2.55;;;2.30;;
73650;SDS011;61944;52.538;6.108;2023-04-24T01:12:58;2.53;;;2.33;;
73650;SDS011;61944;52.538;6.108;2023-04-24T01:15:24;2.28;;;2.10;;
73650;SDS011;61944;52.538;6.108;2023-04-24T01:17:49;2.33;;;2.13;;
73650;SDS011;61944;52.538;6.108;2023-04-24T01:20:15;2.53;;;1.80;;
73650;SDS011;61944;52.538;6.108;2023-04-24T01:22:41;2.03;;;1.92;;
73650;SDS011;61944;52.538;6.108;2023-04-24T01:25:07;2.50;;;2.28;;
73650;SDS011;61944;52.538;6.108;2023-04-24T01:27:33;2.03;;;1.92;;
73650;SDS011;61944;52.538;6.108;2023-04-24T01:29:58;2.30;;;1.80;;
73650;SDS011;61944;52.538;6.108;2023-04-24T01:32:24;1.77;;;1.67;;
73650;SDS011;61944;52.538;6.108;2023-04-24T01:34:50;1.67;;;1.58;;
73650;SDS011;61944;52.538;6.108;2023-04-24T01:37:16;1.65;;;1.48;;
73650;SDS011;61944;52.538;6.108;2023-04-24T01:39:42;1.60;;;1.38;;
73650;SDS011;61944;52.538;6.108;2023-04-24T01:42:08;1.77;;;1.40;;
73650;SDS011;61944;52.538;6.108;2023-04-24T01:44:34;1.30;;;1.20;;
73650;SDS011;61944;52.538;6.108;2023-04-24T01:47:00;1.77;;;1.10;;
73650;SDS011;61944;52.538;6.108;2023-04-24T01:49:26;1.48;;;1.33;;
73650;SDS011;61944;52.538;6.108;2023-04-24T01:51:52;1.42;;;1.30;;
73650;SDS011;61944;52.538;6.108;2023-04-24T01:54:17;3.22;;;1.30;;
73650;SDS011;61944;52.538;6.108;2023-04-24T01:56:43;1.30;;;1.10;;
73650;SDS011;61944;52.538;6.108;2023-04-24T01:59:11;1.98;;;1.13;;
73650;SDS011;61944;52.538;6.108;2023-04-24T02:01:37;1.13;;;1.00;;
73650;SDS011;61944;52.538;6.108;2023-04-24T02:04:03;1.80;;;1.45;;
73650;SDS011;61944;52.538;6.108;2023-04-24T02:06:30;1.50;;;1.40;;
73650;SDS011;61944;52.538;6.108;2023-04-24T02:08:56;2.95;;;1.55;;
73650;SDS011;61944;52.538;6.108;2023-04-24T02:11:24;1.55;;;1.45;;
73650;SDS011;61944;52.538;6.108;2023-04-24T02:13:50;1.92;;;1.75;;
73650;SDS011;61944;52.538;6.108;2023-04-24T02:16:16;6.78;;;2.05;;
73650;SDS011;61944;52.538;6.108;2023-04-24T02:18:42;2.90;;;1.77;;
73650;SDS011;61944;52.538;6.108;2023-04-24T02:21:07;2.35;;;1.92;;
73650;SDS011;61944;52.538;6.108;2023-04-24T02:23:32;2.50;;;1.88;;
73650;SDS011;61944;52.538;6.108;2023-04-24T02:25:58;4.10;;;1.90;;
73650;SDS011;61944;52.538;6.108;2023-04-24T02:28:23;2.30;;;2.00;;
73650;SDS011;61944;52.538;6.108;2023-04-24T02:30:49;2.35;;;1.70;;
73650;SDS011;61944;52.538;6.108;2023-04-24T02:33:15;1.58;;;1.45;;
73650;SDS011;61944;52.538;6.108;2023-04-24T02:35:40;2.22;;;1.90;;
73650;SDS011;61944;52.538;6.108;2023-04-24T02:38:06;2.28;;;1.85;;
73650;SDS011;61944;52.538;6.108;2023-04-24T02:40:31;3.47;;;1.30;;
73650;SDS011;61944;52.538;6.108;2023-04-24T02:42:57;2.03;;;1.52;;
73650;SDS011;61944;52.538;6.108;2023-04-24T02:45:22;1.30;;;1.20;;
73650;SDS011;61944;52.538;6.108;2023-04-24T02:47:47;1.73;;;1.25;;
73650;SDS011;61944;52.538;6.108;2023-04-24T02:50:13;1.30;;;1.20;;
73650;SDS011;61944;52.538;6.108;2023-04-24T02:52:38;1.70;;;1.20;;
73650;SDS011;61944;52.538;6.108;2023-04-24T02:55:04;1.23;;;1.15;;
73650;SDS011;61944;52.538;6.108;2023-04-24T02:57:30;1.17;;;1.08;;
73650;SDS011;61944;52.538;6.108;2023-04-24T02:59:55;1.08;;;0.98;;
73650;SDS011;61944;52.538;6.108;2023-04-24T03:02:20;1.58;;;1.10;;
73650;SDS011;61944;52.538;6.108;2023-04-24T03:04:46;1.55;;;1.00;;
73650;SDS011;61944;52.538;6.108;2023-04-24T03:07:13;1.52;;;1.00;;
73650;SDS011;61944;52.538;6.108;2023-04-24T03:09:39;1.85;;;1.20;;
73650;SDS011;61944;52.538;6.108;2023-04-24T03:12:05;1.40;;;1.27;;
73650;SDS011;61944;52.538;6.108;2023-04-24T03:14:31;1.30;;;1.20;;
73650;SDS011;61944;52.538;6.108;2023-04-24T03:16:56;1.90;;;1.40;;
73650;SDS011;61944;52.538;6.108;2023-04-24T03:19:21;2.67;;;1.83;;
73650;SDS011;61944;52.538;6.108;2023-04-24T03:21:47;1.83;;;1.60;;
73650;SDS011;61944;52.538;6.108;2023-04-24T03:24:13;2.83;;;1.88;;
73650;SDS011;61944;52.538;6.108;2023-04-24T03:26:38;2.85;;;1.67;;
73650;SDS011;61944;52.538;6.108;2023-04-24T03:29:04;2.03;;;1.83;;
73650;SDS011;61944;52.538;6.108;2023-04-24T03:31:29;2.28;;;1.90;;
73650;SDS011;61944;52.538;6.108;2023-04-24T03:33:54;2.17;;;1.88;;
73650;SDS011;61944;52.538;6.108;2023-04-24T03:36:20;3.72;;;1.75;;
73650;SDS011;61944;52.538;6.108;2023-04-24T03:38:45;2.58;;;2.20;;
73650;SDS011;61944;52.538;6.108;2023-04-24T03:41:11;2.88;;;2.40;;
73650;SDS011;61944;52.538;6.108;2023-04-24T03:43:37;5.65;;;3.05;;
73650;SDS011;61944;52.538;6.108;2023-04-24T03:46:03;2.65;;;1.88;;
73650;SDS011;61944;52.538;6.108;2023-04-24T03:48:28;2.65;;;1.90;;
73650;SDS011;61944;52.538;6.108;2023-04-24T03:50:53;1.85;;;1.55;;
73650;SDS011;61944;52.538;6.108;2023-04-24T03:53:19;1.63;;;1.50;;
73650;SDS011;61944;52.538;6.108;2023-04-24T03:55:44;1.85;;;1.60;;
73650;SDS011;61944;52.538;6.108;2023-04-24T03:58:10;2.00;;;1.30;;
73650;SDS011;61944;52.538;6.108;2023-04-24T04:00:36;2.83;;;1.48;;
73650;SDS011;61944;52.538;6.108;2023-04-24T04:03:02;3.63;;;1.73;;
73650;SDS011;61944;52.538;6.108;2023-04-24T04:05:28;1.70;;;1.45;;
73650;SDS011;61944;52.538;6.108;2023-04-24T04:07:54;1.77;;;1.50;;
73650;SDS011;61944;52.538;6.108;2023-04-24T04:10:19;4.32;;;1.75;;
73650;SDS011;61944;52.538;6.108;2023-04-24T04:12:45;1.93;;;1.20;;
73650;SDS011;61944;52.538;6.108;2023-04-24T04:15:10;1.50;;;1.17;;
73650;SDS011;61944;52.538;6.108;2023-04-24T04:17:35;2.78;;;1.63;;
73650;SDS011;61944;52.538;6.108;2023-04-24T04:20:02;1.40;;;1.30;;
73650;SDS011;61944;52.538;6.108;2023-04-24T04:22:32;1.95;;;1.33;;
73650;SDS011;61944;52.538;6.108;2023-04-24T04:24:57;2.63;;;1.30;;
73650;SDS011;61944;52.538;6.108;2023-04-24T04:27:23;2.08;;;1.42;;
73650;SDS011;61944;52.538;6.108;2023-04-24T04:29:48;3.17;;;1.35;;
73650;SDS011;61944;52.538;6.108;2023-04-24T04:32:15;1.80;;;1.30;;
73650;SDS011;61944;52.538;6.108;2023-04-24T04:34:41;1.65;;;1.27;;
73650;SDS011;61944;52.538;6.108;2023-04-24T04:37:07;1.50;;;1.00;;
73650;SDS011;61944;52.538;6.108;2023-04-24T04:39:32;3.55;;;1.60;;
73650;SDS011;61944;52.538;6.108;2023-04-24T04:41:57;2.03;;;1.23;;
73650;SDS011;61944;52.538;6.108;2023-04-24T04:44:23;1.98;;;1.00;;
73650;SDS011;61944;52.538;6.108;2023-04-24T04:46:49;1.42;;;0.73;;
73650;SDS011;61944;52.538;6.108;2023-04-24T04:49:15;1.70;;;0.98;;
73650;SDS011;61944;52.538;6.108;2023-04-24T04:51:41;1.10;;;1.00;;
73650;SDS011;61944;52.538;6.108;2023-04-24T04:54:07;0.90;;;0.80;;
73650;SDS011;61944;52.538;6.108;2023-04-24T04:56:32;1.67;;;0.80;;
73650;SDS011;61944;52.538;6.108;2023-04-24T04:58:58;2.08;;;1.10;;
73650;SDS011;61944;52.538;6.108;2023-04-24T05:01:24;1.63;;;0.93;;
73650;SDS011;61944;52.538;6.108;2023-04-24T05:03:52;1.00;;;0.90;;
73650;SDS011;61944;52.538;6.108;2023-04-24T05:06:18;1.73;;;1.23;;
73650;SDS011;61944;52.538;6.108;2023-04-24T05:08:43;4.45;;;1.55;;
73650;SDS011;61944;52.538;6.108;2023-04-24T05:11:09;2.13;;;0.80;;
73650;SDS011;61944;52.538;6.108;2023-04-24T05:13:34;1.15;;;1.02;;
73650;SDS011;61944;52.538;6.108;2023-04-24T05:16:00;2.72;;;1.00;;
73650;SDS011;61944;52.538;6.108;2023-04-24T05:18:25;1.40;;;1.20;;
73650;SDS011;61944;52.538;6.108;2023-04-24T05:20:51;2.08;;;0.95;;
73650;SDS011;61944;52.538;6.108;2023-04-24T05:23:16;1.35;;;1.23;;
73650;SDS011;61944;52.538;6.108;2023-04-24T05:25:41;1.48;;;0.95;;
73650;SDS011;61944;52.538;6.108;2023-04-24T05:28:07;1.33;;;1.10;;
73650;SDS011;61944;52.538;6.108;2023-04-24T05:30:33;1.98;;;1.15;;
73650;SDS011;61944;52.538;6.108;2023-04-24T05:32:58;1.75;;;0.75;;
73650;SDS011;61944;52.538;6.108;2023-04-24T05:35:23;2.90;;;1.00;;
73650;SDS011;61944;52.538;6.108;2023-04-24T05:37:49;1.70;;;1.30;;
73650;SDS011;61944;52.538;6.108;2023-04-24T05:40:14;2.75;;;1.30;;
73650;SDS011;61944;52.538;6.108;2023-04-24T05:42:40;2.25;;;1.20;;
73650;SDS011;61944;52.538;6.108;2023-04-24T05:45:05;2.28;;;1.17;;
73650;SDS011;61944;52.538;6.108;2023-04-24T05:47:31;1.80;;;1.33;;
73650;SDS011;61944;52.538;6.108;2023-04-24T05:49:57;2.50;;;1.48;;
73650;SDS011;61944;52.538;6.108;2023-04-24T05:52:22;2.00;;;1.40;;
73650;SDS011;61944;52.538;6.108;2023-04-24T05:54:47;2.03;;;1.33;;
73650;SDS011;61944;52.538;6.108;2023-04-24T05:57:13;2.10;;;1.20;;
73650;SDS011;61944;52.538;6.108;2023-04-24T05:59:38;2.58;;;1.35;;
73650;SDS011;61944;52.538;6.108;2023-04-24T06:02:04;1.27;;;1.17;;
73650;SDS011;61944;52.538;6.108;2023-04-24T06:04:29;3.10;;;1.27;;
73650;SDS011;61944;52.538;6.108;2023-04-24T06:06:54;1.38;;;1.13;;
73650;SDS011;61944;52.538;6.108;2023-04-24T06:09:21;1.55;;;1.00;;
73650;SDS011;61944;52.538;6.108;2023-04-24T06:11:50;2.78;;;1.50;;
73650;SDS011;61944;52.538;6.108;2023-04-24T06:14:18;1.25;;;1.10;;
73650;SDS011;61944;52.538;6.108;2023-04-24T06:16:43;2.67;;;1.15;;
73650;SDS011;61944;52.538;6.108;2023-04-24T06:19:09;1.98;;;1.10;;
73650;SDS011;61944;52.538;6.108;2023-04-24T06:21:34;1.58;;;1.40;;
73650;SDS011;61944;52.538;6.108;2023-04-24T06:24:00;2.03;;;1.17;;
73650;SDS011;61944;52.538;6.108;2023-04-24T06:26:25;1.48;;;1.38;;
73650;SDS011;61944;52.538;6.108;2023-04-24T06:28:51;3.42;;;1.60;;
73650;SDS011;61944;52.538;6.108;2023-04-24T06:31:18;2.55;;;1.27;;
73650;SDS011;61944;52.538;6.108;2023-04-24T06:33:44;1.73;;;1.20;;
73650;SDS011;61944;52.538;6.108;2023-04-24T06:36:10;2.58;;;1.52;;
73650;SDS011;61944;52.538;6.108;2023-04-24T06:38:35;3.65;;;1.38;;
73650;SDS011;61944;52.538;6.108;2023-04-24T06:41:01;3.22;;;1.60;;
73650;SDS011;61944;52.538;6.108;2023-04-24T06:43:26;3.78;;;1.85;;
73650;SDS011;61944;52.538;6.108;2023-04-24T06:45:51;2.25;;;1.73;;
73650;SDS011;61944;52.538;6.108;2023-04-24T06:48:17;3.75;;;2.78;;
73650;SDS011;61944;52.538;6.108;2023-04-24T06:50:42;2.95;;;2.05;;
73650;SDS011;61944;52.538;6.108;2023-04-24T06:53:07;4.10;;;1.90;;
73650;SDS011;61944;52.538;6.108;2023-04-24T06:55:35;3.13;;;1.85;;
73650;SDS011;61944;52.538;6.108;2023-04-24T06:58:01;4.78;;;1.60;;
73650;SDS011;61944;52.538;6.108;2023-04-24T07:00:26;2.95;;;1.98;;
73650;SDS011;61944;52.538;6.108;2023-04-24T07:02:52;2.95;;;1.50;;
73650;SDS011;61944;52.538;6.108;2023-04-24T07:05:17;4.82;;;1.52;;
73650;SDS011;61944;52.538;6.108;2023-04-24T07:07:45;2.45;;;1.45;;
73650;SDS011;61944;52.538;6.108;2023-04-24T07:10:12;3.92;;;1.90;;
73650;SDS011;61944;52.538;6.108;2023-04-24T07:12:38;6.53;;;2.67;;
73650;SDS011;61944;52.538;6.108;2023-04-24T07:15:03;5.40;;;2.20;;
73650;SDS011;61944;52.538;6.108;2023-04-24T07:17:30;5.40;;;2.47;;
73650;SDS011;61944;52.538;6.108;2023-04-24T07:19:55;4.38;;;2.50;;
73650;SDS011;61944;52.538;6.108;2023-04-24T07:22:21;3.63;;;1.73;;
73650;SDS011;61944;52.538;6.108;2023-04-24T07:24:46;2.65;;;1.85;;
73650;SDS011;61944;52.538;6.108;2023-04-24T07:27:11;3.45;;;1.90;;
73650;SDS011;61944;52.538;6.108;2023-04-24T07:29:37;3.20;;;2.05;;
73650;SDS011;61944;52.538;6.108;2023-04-24T07:32:03;4.70;;;2.30;;
73650;SDS011;61944;52.538;6.108;2023-04-24T07:34:28;3.08;;;1.98;;
73650;SDS011;61944;52.538;6.108;2023-04-24T07:36:54;4.03;;;2.75;;
73650;SDS011;61944;52.538;6.108;2023-04-24T07:39:19;3.85;;;2.78;;
73650;SDS011;61944;52.538;6.108;2023-04-24T07:41:45;6.60;;;2.67;;
73650;SDS011;61944;52.538;6.108;2023-04-24T07:44:10;4.35;;;2.70;;
73650;SDS011;61944;52.538;6.108;2023-04-24T07:46:35;8.27;;;3.17;;
73650;SDS011;61944;52.538;6.108;2023-04-24T07:49:01;2.65;;;2.28;;
73650;SDS011;61944;52.538;6.108;2023-04-24T07:51:26;6.43;;;4.00;;
73650;SDS011;61944;52.538;6.108;2023-04-24T07:53:56;8.75;;;5.63;;
73650;SDS011;61944;52.538;6.108;2023-04-24T07:56:21;11.05;;;5.47;;
73650;SDS011;61944;52.538;6.108;2023-04-24T07:58:46;15.43;;;6.47;;
73650;SDS011;61944;52.538;6.108;2023-04-24T08:01:12;11.65;;;6.45;;
73650;SDS011;61944;52.538;6.108;2023-04-24T08:03:37;16.23;;;9.93;;
73650;SDS011;61944;52.538;6.108;2023-04-24T08:06:03;21.33;;;9.48;;
73650;SDS011;61944;52.538;6.108;2023-04-24T08:08:28;17.52;;;7.95;;
73650;SDS011;61944;52.538;6.108;2023-04-24T08:10:54;18.38;;;8.93;;
73650;SDS011;61944;52.538;6.108;2023-04-24T08:13:20;15.82;;;8.35;;
73650;SDS011;61944;52.538;6.108;2023-04-24T08:15:45;16.70;;;9.63;;
73650;SDS011;61944;52.538;6.108;2023-04-24T08:18:11;15.63;;;9.63;;
73650;SDS011;61944;52.538;6.108;2023-04-24T08:20:37;17.55;;;9.05;;
73650;SDS011;61944;52.538;6.108;2023-04-24T08:23:03;16.92;;;8.18;;
73650;SDS011;61944;52.538;6.108;2023-04-24T08:25:28;12.82;;;7.97;;
73650;SDS011;61944;52.538;6.108;2023-04-24T08:27:53;12.80;;;7.47;;
73650;SDS011;61944;52.538;6.108;2023-04-24T08:30:19;13.55;;;8.15;;
73650;SDS011;61944;52.538;6.108;2023-04-24T08:32:45;15.18;;;7.93;;
73650;SDS011;61944;52.538;6.108;2023-04-24T08:35:11;13.02;;;7.97;;
73650;SDS011;61944;52.538;6.108;2023-04-24T08:37:36;12.23;;;7.78;;
73650;SDS011;61944;52.538;6.108;2023-04-24T08:40:03;13.77;;;8.20;;
73650;SDS011;61944;52.538;6.108;2023-04-24T08:42:36;20.13;;;8.98;;
73650;SDS011;61944;52.538;6.108;2023-04-24T08:45:02;18.33;;;8.18;;
73650;SDS011;61944;52.538;6.108;2023-04-24T08:47:27;14.00;;;7.65;;
73650;SDS011;61944;52.538;6.108;2023-04-24T08:49:54;17.33;;;8.27;;
73650;SDS011;61944;52.538;6.108;2023-04-24T08:52:20;16.33;;;7.72;;
73650;SDS011;61944;52.538;6.108;2023-04-24T08:54:47;15.80;;;8.13;;
73650;SDS011;61944;52.538;6.108;2023-04-24T08:57:12;16.27;;;7.60;;
73650;SDS011;61944;52.538;6.108;2023-04-24T08:59:39;13.98;;;8.00;;
73650;SDS011;61944;52.538;6.108;2023-04-24T09:02:05;15.70;;;7.22;;
73650;SDS011;61944;52.538;6.108;2023-04-24T09:04:34;22.85;;;8.18;;
73650;SDS011;61944;52.538;6.108;2023-04-24T09:07:01;14.05;;;7.10;;
73650;SDS011;61944;52.538;6.108;2023-04-24T09:09:27;12.55;;;6.63;;
73650;SDS011;61944;52.538;6.108;2023-04-24T09:11:55;9.70;;;5.28;;
73650;SDS011;61944;52.538;6.108;2023-04-24T09:14:22;11.55;;;5.65;;
73650;SDS011;61944;52.538;6.108;2023-04-24T09:16:48;13.00;;;6.72;;
73650;SDS011;61944;52.538;6.108;2023-04-24T09:19:14;10.45;;;5.40;;
73650;SDS011;61944;52.538;6.108;2023-04-24T09:21:40;10.55;;;6.10;;
73650;SDS011;61944;52.538;6.108;2023-04-24T09:24:08;9.50;;;4.65;;
73650;SDS011;61944;52.538;6.108;2023-04-24T09:26:42;9.30;;;4.80;;
73650;SDS011;61944;52.538;6.108;2023-04-24T09:29:08;13.35;;;5.93;;
73650;SDS011;61944;52.538;6.108;2023-04-24T09:31:40;10.57;;;4.90;;
73650;SDS011;61944;52.538;6.108;2023-04-24T09:34:06;10.63;;;5.43;;
73650;SDS011;61944;52.538;6.108;2023-04-24T09:36:33;14.27;;;4.53;;
73650;SDS011;61944;52.538;6.108;2023-04-24T09:39:02;8.98;;;5.10;;
73650;SDS011;61944;52.538;6.108;2023-04-24T09:41:31;9.23;;;4.43;;
73650;SDS011;61944;52.538;6.108;2023-04-24T09:43:58;8.20;;;5.30;;
73650;SDS011;61944;52.538;6.108;2023-04-24T09:46:36;13.88;;;5.10;;
73650;SDS011;61944;52.538;6.108;2023-04-24T09:49:08;13.95;;;4.97;;
73650;SDS011;61944;52.538;6.108;2023-04-24T09:51:37;11.10;;;5.07;;
73650;SDS011;61944;52.538;6.108;2023-04-24T09:54:03;8.43;;;4.13;;
73650;SDS011;61944;52.538;6.108;2023-04-24T09:56:32;10.75;;;4.05;;
73650;SDS011;61944;52.538;6.108;2023-04-24T09:59:07;14.25;;;4.78;;
73650;SDS011;61944;52.538;6.108;2023-04-24T10:01:33;17.23;;;4.28;;
73650;SDS011;61944;52.538;6.108;2023-04-24T10:03:58;10.88;;;4.05;;
73650;SDS011;61944;52.538;6.108;2023-04-24T10:06:42;7.38;;;4.07;;
73650;SDS011;61944;52.538;6.108;2023-04-24T10:09:08;9.63;;;3.45;;
73650;SDS011;61944;52.538;6.108;2023-04-24T10:11:36;12.73;;;4.03;;
73650;SDS011;61944;52.538;6.108;2023-04-24T10:14:02;8.63;;;3.35;;
73650;SDS011;61944;52.538;6.108;2023-04-24T10:16:28;19.05;;;4.68;;
73650;SDS011;61944;52.538;6.108;2023-04-24T10:18:56;14.90;;;3.95;;
73650;SDS011;61944;52.538;6.108;2023-04-24T10:21:24;12.60;;;4.00;;
73650;SDS011;61944;52.538;6.108;2023-04-24T10:23:51;9.95;;;3.80;;
73650;SDS011;61944;52.538;6.108;2023-04-24T10:26:18;11.18;;;3.78;;
73650;SDS011;61944;52.538;6.108;2023-04-24T10:28:47;8.38;;;3.03;;
73650;SDS011;61944;52.538;6.108;2023-04-24T10:31:13;9.65;;;3.20;;
73650;SDS011;61944;52.538;6.108;2023-04-24T10:33:42;11.52;;;4.40;;
73650;SDS011;61944;52.538;6.108;2023-04-24T10:36:09;8.90;;;2.80;;
73650;SDS011;61944;52.538;6.108;2023-04-24T10:38:37;4.82;;;2.58;;
73650;SDS011;61944;52.538;6.108;2023-04-24T10:41:12;7.78;;;2.78;;
73650;SDS011;61944;52.538;6.108;2023-04-24T10:43:44;9.00;;;3.35;;
73650;SDS011;61944;52.538;6.108;2023-04-24T10:46:10;9.70;;;2.83;;
73650;SDS011;61944;52.538;6.108;2023-04-24T10:48:44;11.77;;;3.53;;
73650;SDS011;61944;52.538;6.108;2023-04-24T10:51:18;10.20;;;2.78;;
73650;SDS011;61944;52.538;6.108;2023-04-24T10:53:46;4.97;;;1.63;;
73650;SDS011;61944;52.538;6.108;2023-04-24T10:56:15;4.80;;;3.25;;
73650;SDS011;61944;52.538;6.108;2023-04-24T10:58:42;5.65;;;2.15;;
73650;SDS011;61944;52.538;6.108;2023-04-24T11:03:56;8.10;;;3.10;;
73650;SDS011;61944;52.538;6.108;2023-04-24T11:06:33;9.48;;;2.83;;
73650;SDS011;61944;52.538;6.108;2023-04-24T11:09:09;7.53;;;3.65;;
73650;SDS011;61944;52.538;6.108;2023-04-24T11:11:37;8.40;;;2.45;;
73650;SDS011;61944;52.538;6.108;2023-04-24T11:14:09;7.95;;;2.80;;
73650;SDS011;61944;52.538;6.108;2023-04-24T11:16:39;7.30;;;2.38;;
73650;SDS011;61944;52.538;6.108;2023-04-24T11:21:45;3.35;;;2.10;;
73650;SDS011;61944;52.538;6.108;2023-04-24T11:24:26;11.38;;;2.67;;
73650;SDS011;61944;52.538;6.108;2023-04-24T11:27:16;9.50;;;2.03;;
73650;SDS011;61944;52.538;6.108;2023-04-24T11:29:48;5.55;;;1.98;;
73650;SDS011;61944;52.538;6.108;2023-04-24T11:34:59;5.80;;;2.38;;
73650;SDS011;61944;52.538;6.108;2023-04-24T11:37:38;2.70;;;2.10;;
73650;SDS011;61944;52.538;6.108;2023-04-24T11:40:05;8.75;;;1.90;;
73650;SDS011;61944;52.538;6.108;2023-04-24T11:42:40;5.32;;;1.70;;
73650;SDS011;61944;52.538;6.108;2023-04-24T11:45:14;5.88;;;1.80;;
73650;SDS011;61944;52.538;6.108;2023-04-24T11:47:41;3.70;;;1.80;;
73650;SDS011;61944;52.538;6.108;2023-04-24T11:50:09;4.10;;;2.10;;
73650;SDS011;61944;52.538;6.108;2023-04-24T11:52:36;8.60;;;1.98;;
73650;SDS011;61944;52.538;6.108;2023-04-24T11:55:04;3.33;;;1.92;;
73650;SDS011;61944;52.538;6.108;2023-04-24T11:57:31;7.30;;;2.60;;
73650;SDS011;61944;52.538;6.108;2023-04-24T12:00:03;3.28;;;1.67;;
73650;SDS011;61944;52.538;6.108;2023-04-24T12:02:30;3.85;;;1.50;;
73650;SDS011;61944;52.538;6.108;2023-04-24T12:04:55;7.55;;;1.67;;
73650;SDS011;61944;52.538;6.108;2023-04-24T12:07:22;1.27;;;1.17;;
73650;SDS011;61944;52.538;6.108;2023-04-24T12:09:50;1.20;;;0.90;;
73650;SDS011;61944;52.538;6.108;2023-04-24T12:12:23;4.63;;;1.35;;
73650;SDS011;61944;52.538;6.108;2023-04-24T12:14:57;4.32;;;1.08;;
73650;SDS011;61944;52.538;6.108;2023-04-24T12:17:23;4.88;;;1.48;;
73650;SDS011;61944;52.538;6.108;2023-04-24T12:19:57;2.50;;;1.60;;
73650;SDS011;61944;52.538;6.108;2023-04-24T12:22:28;8.48;;;1.80;;
73650;SDS011;61944;52.538;6.108;2023-04-24T12:25:09;7.05;;;1.42;;
73650;SDS011;61944;52.538;6.108;2023-04-24T12:27:35;6.03;;;1.42;;
73650;SDS011;61944;52.538;6.108;2023-04-24T12:30:01;5.57;;;1.75;;
73650;SDS011;61944;52.538;6.108;2023-04-24T12:32:29;5.55;;;1.55;;
73650;SDS011;61944;52.538;6.108;2023-04-24T12:34:55;7.72;;;1.55;;
73650;SDS011;61944;52.538;6.108;2023-04-24T12:37:25;5.95;;;1.33;;
73650;SDS011;61944;52.538;6.108;2023-04-24T12:40:04;2.88;;;1.25;;
73650;SDS011;61944;52.538;6.108;2023-04-24T12:42:32;15.18;;;1.73;;
73650;SDS011;61944;52.538;6.108;2023-04-24T12:44:58;5.57;;;2.28;;
73650;SDS011;61944;52.538;6.108;2023-04-24T12:47:26;3.63;;;1.35;;
73650;SDS011;61944;52.538;6.108;2023-04-24T12:49:53;1.88;;;1.13;;
73650;SDS011;61944;52.538;6.108;2023-04-24T12:52:20;5.60;;;1.88;;
73650;SDS011;61944;52.538;6.108;2023-04-24T12:54:55;3.05;;;1.50;;
73650;SDS011;61944;52.538;6.108;2023-04-24T12:57:22;2.83;;;1.35;;
73650;SDS011;61944;52.538;6.108;2023-04-24T12:59:48;4.75;;;1.20;;
73650;SDS011;61944;52.538;6.108;2023-04-24T13:02:14;3.50;;;1.10;;
73650;SDS011;61944;52.538;6.108;2023-04-24T13:04:43;3.55;;;1.23;;
73650;SDS011;61944;52.538;6.108;2023-04-24T13:07:09;2.17;;;0.98;;
73650;SDS011;61944;52.538;6.108;2023-04-24T13:09:34;1.60;;;1.10;;
73650;SDS011;61944;52.538;6.108;2023-04-24T13:12:00;2.40;;;1.00;;
73650;SDS011;61944;52.538;6.108;2023-04-24T13:14:26;2.22;;;1.08;;
73650;SDS011;61944;52.538;6.108;2023-04-24T13:16:51;2.58;;;0.90;;
73650;SDS011;61944;52.538;6.108;2023-04-24T13:19:17;3.95;;;1.27;;
73650;SDS011;61944;52.538;6.108;2023-04-24T13:21:43;3.17;;;2.42;;
73650;SDS011;61944;52.538;6.108;2023-04-24T13:24:09;2.05;;;1.30;;
73650;SDS011;61944;52.538;6.108;2023-04-24T13:26:34;9.23;;;1.65;;
73650;SDS011;61944;52.538;6.108;2023-04-24T13:29:00;5.72;;;1.42;;
73650;SDS011;61944;52.538;6.108;2023-04-24T13:31:25;3.33;;;1.17;;
73650;SDS011;61944;52.538;6.108;2023-04-24T13:33:51;6.43;;;1.73;;
73650;SDS011;61944;52.538;6.108;2023-04-24T13:36:16;3.85;;;1.30;;
73650;SDS011;61944;52.538;6.108;2023-04-24T13:38:42;8.68;;;2.72;;
73650;SDS011;61944;52.538;6.108;2023-04-24T13:41:09;3.92;;;1.50;;
73650;SDS011;61944;52.538;6.108;2023-04-24T13:43:34;4.43;;;1.70;;
73650;SDS011;61944;52.538;6.108;2023-04-24T13:46:00;5.68;;;1.52;;
73650;SDS011;61944;52.538;6.108;2023-04-24T13:48:27;5.70;;;1.60;;
73650;SDS011;61944;52.538;6.108;2023-04-24T13:50:53;6.93;;;1.75;;
73650;SDS011;61944;52.538;6.108;2023-04-24T13:53:18;2.55;;;1.67;;
73650;SDS011;61944;52.538;6.108;2023-04-24T13:55:44;6.60;;;1.40;;
73650;SDS011;61944;52.538;6.108;2023-04-24T13:58:09;3.30;;;1.40;;
73650;SDS011;61944;52.538;6.108;2023-04-24T14:00:35;6.13;;;1.52;;
73650;SDS011;61944;52.538;6.108;2023-04-24T14:03:00;9.27;;;1.42;;
73650;SDS011;61944;52.538;6.108;2023-04-24T14:05:26;7.38;;;1.45;;
73650;SDS011;61944;52.538;6.108;2023-04-24T14:07:51;2.85;;;1.40;;
73650;SDS011;61944;52.538;6.108;2023-04-24T14:10:16;8.00;;;1.20;;
73650;SDS011;61944;52.538;6.108;2023-04-24T14:12:42;3.67;;;1.85;;
73650;SDS011;61944;52.538;6.108;2023-04-24T14:15:07;3.78;;;1.30;;
73650;SDS011;61944;52.538;6.108;2023-04-24T14:17:33;9.80;;;2.25;;
73650;SDS011;61944;52.538;6.108;2023-04-24T14:20:00;9.43;;;3.03;;
73650;SDS011;61944;52.538;6.108;2023-04-24T14:22:26;11.07;;;2.05;;
73650;SDS011;61944;52.538;6.108;2023-04-24T14:24:51;7.85;;;2.92;;
73650;SDS011;61944;52.538;6.108;2023-04-24T14:27:16;10.30;;;2.83;;
73650;SDS011;61944;52.538;6.108;2023-04-24T14:29:42;11.35;;;2.55;;
73650;SDS011;61944;52.538;6.108;2023-04-24T14:32:07;12.02;;;2.40;;
73650;SDS011;61944;52.538;6.108;2023-04-24T14:34:33;9.35;;;3.05;;
73650;SDS011;61944;52.538;6.108;2023-04-24T14:36:59;12.13;;;2.92;;
73650;SDS011;61944;52.538;6.108;2023-04-24T14:39:24;8.18;;;2.55;;
73650;SDS011;61944;52.538;6.108;2023-04-24T14:41:50;6.63;;;2.90;;
73650;SDS011;61944;52.538;6.108;2023-04-24T14:44:15;9.05;;;2.20;;
73650;SDS011;61944;52.538;6.108;2023-04-24T14:46:41;12.90;;;2.78;;
73650;SDS011;61944;52.538;6.108;2023-04-24T14:49:07;15.45;;;3.20;;
73650;SDS011;61944;52.538;6.108;2023-04-24T14:51:34;7.38;;;3.10;;